sensor_id;sensor_type;location;lat;lon;timestamp;pressure;altitude;pressure_sealevel;temperature;humidity
41800;BME280;27468;47.460;19.034;2023-04-21T00:00:56;100365.84;;;12.40;58.06
41800;BME280;27468;47.460;19.034;2023-04-21T00:03:22;100368.53;;;12.39;57.68
41800;BME280;27468;47.460;19.034;2023-04-21T00:05:52;100353.88;;;12.27;57.66
41800;BME280;27468;47.460;19.034;2023-04-21T00:08:18;100362.81;;;12.21;57.76
41800;BME280;27468;47.460;19.034;2023-04-21T00:10:44;100298.44;;;11.93;57.50
41800;BME280;27468;47.460;19.034;2023-04-21T00:13:11;100303.34;;;12.07;56.98
41800;BME280;27468;47.460;19.034;2023-04-21T00:15:36;100320.66;;;12.17;56.71
41800;BME280;27468;47.460;19.034;2023-04-21T00:18:01;100325.91;;;12.18;56.72
41800;BME280;27468;47.460;19.034;2023-04-21T00:20:29;100364.47;;;12.26;56.85
41800;BME280;27468;47.460;19.034;2023-04-21T00:22:55;100356.56;;;12.26;56.72
41800;BME280;27468;47.460;19.034;2023-04-21T00:25:21;100329.25;;;12.25;56.05
41800;BME280;27468;47.460;19.034;2023-04-21T00:27:46;100344.03;;;12.32;56.07
41800;BME280;27468;47.460;19.034;2023-04-21T00:30:12;100343.34;;;12.26;55.99
41800;BME280;27468;47.460;19.034;2023-04-21T00:32:37;100335.81;;;12.12;56.28
41800;BME280;27468;47.460;19.034;2023-04-21T00:35:03;100350.53;;;12.20;56.28
41800;BME280;27468;47.460;19.034;2023-04-21T00:37:29;100334.03;;;12.12;56.26
41800;BME280;27468;47.460;19.034;2023-04-21T00:39:55;100353.88;;;12.27;56.07
41800;BME280;27468;47.460;19.034;2023-04-21T00:42:20;100360.19;;;12.21;56.30
41800;BME280;27468;47.460;19.034;2023-04-21T00:44:46;100361.31;;;12.13;56.34
41800;BME280;27468;47.460;19.034;2023-04-21T00:47:11;100365.00;;;12.07;56.73
41800;BME280;27468;47.460;19.034;2023-04-21T00:49:36;100336.31;;;11.92;56.64
41800;BME280;27468;47.460;19.034;2023-04-21T00:52:05;100351.97;;;12.00;56.89
41800;BME280;27468;47.460;19.034;2023-04-21T00:54:31;100345.16;;;11.91;56.97
41800;BME280;27468;47.460;19.034;2023-04-21T00:56:59;100341.69;;;11.89;56.83
41800;BME280;27468;47.460;19.034;2023-04-21T00:59:26;100338.25;;;11.85;56.89
41800;BME280;27468;47.460;19.034;2023-04-21T01:01:51;100318.38;;;11.69;56.89
41800;BME280;27468;47.460;19.034;2023-04-21T01:04:17;100286.31;;;11.50;56.97
41800;BME280;27468;47.460;19.034;2023-04-21T01:06:43;100335.84;;;11.75;56.88
41800;BME280;27468;47.460;19.034;2023-04-21T01:09:09;100287.34;;;11.45;57.45
41800;BME280;27468;47.460;19.034;2023-04-21T01:11:37;100344.81;;;11.68;57.59
41800;BME280;27468;47.460;19.034;2023-04-21T01:14:03;100353.47;;;11.74;57.46
41800;BME280;27468;47.460;19.034;2023-04-21T01:16:29;100337.06;;;11.62;57.78
41800;BME280;27468;47.460;19.034;2023-04-21T01:18:57;100323.34;;;11.47;57.89
41800;BME280;27468;47.460;19.034;2023-04-21T01:21:23;100368.66;;;11.65;57.79
41800;BME280;27468;47.460;19.034;2023-04-21T01:23:49;100354.72;;;11.59;57.62
41800;BME280;27468;47.460;19.034;2023-04-21T01:26:23;100355.63;;;11.58;57.62
41800;BME280;27468;47.460;19.034;2023-04-21T01:28:48;100358.41;;;11.54;58.04
41800;BME280;27468;47.460;19.034;2023-04-21T01:31:15;100353.25;;;11.48;58.11
41800;BME280;27468;47.460;19.034;2023-04-21T01:33:41;100286.44;;;11.09;58.97
41800;BME280;27468;47.460;19.034;2023-04-21T01:36:08;100356.03;;;11.42;58.64
41800;BME280;27468;47.460;19.034;2023-04-21T01:38:37;100350.91;;;11.36;58.87
41800;BME280;27468;47.460;19.034;2023-04-21T01:41:03;100250.31;;;10.75;58.93
41800;BME280;27468;47.460;19.034;2023-04-21T01:43:28;100348.44;;;11.28;58.74
41800;BME280;27468;47.460;19.034;2023-04-21T01:45:53;100333.50;;;11.27;58.73
41800;BME280;27468;47.460;19.034;2023-04-21T01:48:19;100350.06;;;11.34;58.85
41800;BME280;27468;47.460;19.034;2023-04-21T01:50:44;100296.34;;;10.99;58.84
41800;BME280;27468;47.460;19.034;2023-04-21T01:53:10;100299.97;;;10.95;59.50
41800;BME280;27468;47.460;19.034;2023-04-21T01:55:35;100317.28;;;11.05;59.75
41800;BME280;27468;47.460;19.034;2023-04-21T01:58:01;100341.50;;;11.24;59.10
41800;BME280;27468;47.460;19.034;2023-04-21T02:00:26;100331.97;;;11.17;58.86
41800;BME280;27468;47.460;19.034;2023-04-21T02:02:52;100333.72;;;11.18;59.07
41800;BME280;27468;47.460;19.034;2023-04-21T02:05:18;100319.06;;;11.05;59.28
41800;BME280;27468;47.460;19.034;2023-04-21T02:07:44;100320.84;;;11.04;59.00
41800;BME280;27468;47.460;19.034;2023-04-21T02:10:10;100350.38;;;11.20;58.77
41800;BME280;27468;47.460;19.034;2023-04-21T02:12:36;100303.66;;;10.88;58.70
41800;BME280;27468;47.460;19.034;2023-04-21T02:15:02;100346.28;;;11.07;59.07
41800;BME280;27468;47.460;19.034;2023-04-21T02:17:27;100321.16;;;10.90;59.51
41800;BME280;27468;47.460;19.034;2023-04-21T02:19:53;100336.94;;;10.94;59.28
41800;BME280;27468;47.460;19.034;2023-04-21T02:22:18;100343.72;;;11.04;59.10
41800;BME280;27468;47.460;19.034;2023-04-21T02:24:44;100292.56;;;10.72;58.79
41800;BME280;27468;47.460;19.034;2023-04-21T02:27:09;100325.72;;;10.84;59.13
41800;BME280;27468;47.460;19.034;2023-04-21T02:29:35;100294.47;;;10.66;58.99
41800;BME280;27468;47.460;19.034;2023-04-21T02:32:00;100354.50;;;10.95;59.63
41800;BME280;27468;47.460;19.034;2023-04-21T02:34:26;100350.09;;;10.95;58.81
41800;BME280;27468;47.460;19.034;2023-04-21T02:36:51;100356.22;;;10.96;58.87
41800;BME280;27468;47.460;19.034;2023-04-21T02:39:16;100300.78;;;10.57;59.32
41800;BME280;27468;47.460;19.034;2023-04-21T02:41:42;100328.56;;;10.73;59.04
41800;BME280;27468;47.460;19.034;2023-04-21T02:44:07;100311.16;;;10.66;58.98
41800;BME280;27468;47.460;19.034;2023-04-21T02:46:33;100352.06;;;10.85;58.73
41800;BME280;27468;47.460;19.034;2023-04-21T02:48:58;100356.44;;;10.86;58.39
41800;BME280;27468;47.460;19.034;2023-04-21T02:51:23;100353.91;;;10.80;58.15
41800;BME280;27468;47.460;19.034;2023-04-21T02:53:49;100350.41;;;10.80;58.56
41800;BME280;27468;47.460;19.034;2023-04-21T02:56:15;100361.00;;;10.78;58.64
41800;BME280;27468;47.460;19.034;2023-04-21T02:58:40;100335.72;;;10.68;58.37
41800;BME280;27468;47.460;19.034;2023-04-21T03:01:06;100334.91;;;10.65;58.41
41800;BME280;27468;47.460;19.034;2023-04-21T03:03:32;100351.44;;;10.73;58.82
41800;BME280;27468;47.460;19.034;2023-04-21T03:06:02;100300.31;;;10.40;58.89
41800;BME280;27468;47.460;19.034;2023-04-21T03:08:28;100320.28;;;10.50;59.45
41800;BME280;27468;47.460;19.034;2023-04-21T03:10:54;100353.41;;;10.63;59.33
41800;BME280;27468;47.460;19.034;2023-04-21T03:13:19;100336.16;;;10.47;58.92
41800;BME280;27468;47.460;19.034;2023-04-21T03:15:45;100344.81;;;10.52;58.88
41800;BME280;27468;47.460;19.034;2023-04-21T03:18:10;100306.75;;;10.25;59.61
41800;BME280;27468;47.460;19.034;2023-04-21T03:20:36;100358.00;;;10.52;59.04
41800;BME280;27468;47.460;19.034;2023-04-21T03:23:02;100351.72;;;10.59;58.03
41800;BME280;27468;47.460;19.034;2023-04-21T03:25:27;100331.97;;;10.37;58.72
41800;BME280;27468;47.460;19.034;2023-04-21T03:27:54;100350.16;;;10.49;58.56
41800;BME280;27468;47.460;19.034;2023-04-21T03:30:20;100324.06;;;10.37;57.83
41800;BME280;27468;47.460;19.034;2023-04-21T03:32:45;100354.41;;;10.56;57.85
41800;BME280;27468;47.460;19.034;2023-04-21T03:35:11;100308.41;;;10.29;57.61
41800;BME280;27468;47.460;19.034;2023-04-21T03:37:36;100304.94;;;10.27;57.65
41800;BME280;27468;47.460;19.034;2023-04-21T03:40:03;100343.09;;;10.51;57.41
41800;BME280;27468;47.460;19.034;2023-04-21T03:42:31;100330.94;;;10.44;56.92
41800;BME280;27468;47.460;19.034;2023-04-21T03:45:04;100369.25;;;10.62;56.86
41800;BME280;27468;47.460;19.034;2023-04-21T03:47:29;100316.94;;;10.40;56.28
41800;BME280;27468;47.460;19.034;2023-04-21T03:49:55;100362.03;;;10.70;56.26
41800;BME280;27468;47.460;19.034;2023-04-21T03:52:20;100365.50;;;10.73;55.67
41800;BME280;27468;47.460;19.034;2023-04-21T03:54:46;100314.25;;;10.43;55.83
41800;BME280;27468;47.460;19.034;2023-04-21T03:57:12;100359.41;;;10.70;55.74
41800;BME280;27468;47.460;19.034;2023-04-21T03:59:37;100363.81;;;10.69;55.04
41800;BME280;27468;47.460;19.034;2023-04-21T04:02:03;100328.13;;;10.53;54.75
41800;BME280;27468;47.460;19.034;2023-04-21T04:04:28;100386.13;;;10.96;54.97
41800;BME280;27468;47.460;19.034;2023-04-21T04:06:54;100394.81;;;11.00;54.71
41800;BME280;27468;47.460;19.034;2023-04-21T04:09:19;100390.44;;;10.99;54.64
41800;BME280;27468;47.460;19.034;2023-04-21T04:11:44;100381.75;;;10.95;54.59
41800;BME280;27468;47.460;19.034;2023-04-21T04:14:10;100398.13;;;11.09;54.48
41800;BME280;27468;47.460;19.034;2023-04-21T04:16:35;100391.94;;;11.10;54.63
41800;BME280;27468;47.460;19.034;2023-04-21T04:19:01;100412.94;;;11.15;54.58
41800;BME280;27468;47.460;19.034;2023-04-21T04:21:28;100386.75;;;11.06;54.58
41800;BME280;27468;47.460;19.034;2023-04-21T04:23:53;100396.34;;;11.10;54.62
41800;BME280;27468;47.460;19.034;2023-04-21T04:26:19;100400.59;;;11.17;55.06
41800;BME280;27468;47.460;19.034;2023-04-21T04:28:46;100407.44;;;11.63;54.36
41800;BME280;27468;47.460;19.034;2023-04-21T04:31:12;100351.41;;;11.87;53.27
41800;BME280;27468;47.460;19.034;2023-04-21T04:33:40;100356.78;;;12.16;51.87
41800;BME280;27468;47.460;19.034;2023-04-21T04:36:06;100319.03;;;12.13;52.19
41800;BME280;27468;47.460;19.034;2023-04-21T04:38:32;100356.34;;;12.33;52.00
41800;BME280;27468;47.460;19.034;2023-04-21T04:40:59;100379.09;;;12.39;52.14
41800;BME280;27468;47.460;19.034;2023-04-21T04:43:26;100415.25;;;12.38;52.68
41800;BME280;27468;47.460;19.034;2023-04-21T04:45:52;100413.94;;;12.20;52.82
41800;BME280;27468;47.460;19.034;2023-04-21T04:48:18;100407.19;;;12.10;52.79
41800;BME280;27468;47.460;19.034;2023-04-21T04:50:43;100427.47;;;12.10;52.87
41800;BME280;27468;47.460;19.034;2023-04-21T04:53:09;100402.28;;;11.95;53.42
41800;BME280;27468;47.460;19.034;2023-04-21T04:55:34;100397.13;;;11.90;53.25
41800;BME280;27468;47.460;19.034;2023-04-21T04:58:00;100415.41;;;12.00;53.33
41800;BME280;27468;47.460;19.034;2023-04-21T05:00:26;100394.53;;;11.89;53.42
41800;BME280;27468;47.460;19.034;2023-04-21T05:02:53;100373.50;;;11.84;53.39
41800;BME280;27468;47.460;19.034;2023-04-21T05:05:18;100415.28;;;12.04;53.45
41800;BME280;27468;47.460;19.034;2023-04-21T05:07:46;100409.00;;;12.08;53.29
41800;BME280;27468;47.460;19.034;2023-04-21T05:10:11;100413.53;;;12.03;53.11
41800;BME280;27468;47.460;19.034;2023-04-21T05:12:37;100406.34;;;12.10;52.84
41800;BME280;27468;47.460;19.034;2023-04-21T05:15:03;100414.94;;;12.16;52.66
41800;BME280;27468;47.460;19.034;2023-04-21T05:17:29;100413.31;;;12.12;52.89
41800;BME280;27468;47.460;19.034;2023-04-21T05:19:55;100409.53;;;12.21;52.61
41800;BME280;27468;47.460;19.034;2023-04-21T05:22:20;100364.41;;;11.96;52.54
41800;BME280;27468;47.460;19.034;2023-04-21T05:24:46;100417.38;;;12.24;52.56
41800;BME280;27468;47.460;19.034;2023-04-21T05:27:11;100364.56;;;11.90;52.48
41800;BME280;27468;47.460;19.034;2023-04-21T05:29:37;100373.13;;;12.00;52.72
41800;BME280;27468;47.460;19.034;2023-04-21T05:32:02;100427.00;;;12.27;51.70
41800;BME280;27468;47.460;19.034;2023-04-21T05:34:28;100398.22;;;12.16;51.68
41800;BME280;27468;47.460;19.034;2023-04-21T05:36:53;100375.75;;;12.00;51.91
41800;BME280;27468;47.460;19.034;2023-04-21T05:39:19;100349.50;;;11.94;51.52
41800;BME280;27468;47.460;19.034;2023-04-21T05:41:44;100399.00;;;12.19;51.82
41800;BME280;27468;47.460;19.034;2023-04-21T05:44:10;100418.94;;;12.33;51.58
41800;BME280;27468;47.460;19.034;2023-04-21T05:46:35;100409.13;;;12.36;51.99
41800;BME280;27468;47.460;19.034;2023-04-21T05:49:00;100381.38;;;12.20;52.07
41800;BME280;27468;47.460;19.034;2023-04-21T05:51:29;100410.00;;;12.37;51.92
41800;BME280;27468;47.460;19.034;2023-04-21T05:53:54;100395.75;;;12.42;51.38
41800;BME280;27468;47.460;19.034;2023-04-21T05:56:20;100420.78;;;12.62;50.28
41800;BME280;27468;47.460;19.034;2023-04-21T05:58:45;100409.25;;;12.64;49.82
41800;BME280;27468;47.460;19.034;2023-04-21T06:01:11;100404.88;;;12.63;49.88
41800;BME280;27468;47.460;19.034;2023-04-21T06:03:37;100367.19;;;12.55;49.66
41800;BME280;27468;47.460;19.034;2023-04-21T06:06:03;100422.69;;;12.87;49.66
41800;BME280;27468;47.460;19.034;2023-04-21T06:08:30;100413.16;;;12.82;49.09
41800;BME280;27468;47.460;19.034;2023-04-21T06:10:55;100414.50;;;12.97;48.51
41800;BME280;27468;47.460;19.034;2023-04-21T06:13:21;100420.53;;;13.02;48.66
41800;BME280;27468;47.460;19.034;2023-04-21T06:15:46;100404.84;;;12.94;48.07
41800;BME280;27468;47.460;19.034;2023-04-21T06:18:12;100417.75;;;13.06;48.10
41800;BME280;27468;47.460;19.034;2023-04-21T06:20:37;100418.50;;;13.10;48.20
41800;BME280;27468;47.460;19.034;2023-04-21T06:23:05;100423.81;;;13.10;47.71
41800;BME280;27468;47.460;19.034;2023-04-21T06:25:30;100415.53;;;13.22;47.18
41800;BME280;27468;47.460;19.034;2023-04-21T06:27:55;100419.66;;;13.31;47.55
41800;BME280;27468;47.460;19.034;2023-04-21T06:30:21;100404.78;;;13.28;47.56
41800;BME280;27468;47.460;19.034;2023-04-21T06:32:46;100419.34;;;13.41;46.63
41800;BME280;27468;47.460;19.034;2023-04-21T06:35:13;100436.91;;;13.44;45.93
41800;BME280;27468;47.460;19.034;2023-04-21T06:37:39;100420.78;;;13.51;45.54
41800;BME280;27468;47.460;19.034;2023-04-21T06:40:05;100402.38;;;13.47;44.62
41800;BME280;27468;47.460;19.034;2023-04-21T06:42:31;100412.91;;;13.50;44.94
41800;BME280;27468;47.460;19.034;2023-04-21T06:44:56;100377.19;;;13.34;45.01
41800;BME280;27468;47.460;19.034;2023-04-21T06:47:22;100370.91;;;13.38;44.65
41800;BME280;27468;47.460;19.034;2023-04-21T06:49:47;100403.75;;;13.60;44.16
41800;BME280;27468;47.460;19.034;2023-04-21T06:52:13;100369.06;;;13.40;43.84
41800;BME280;27468;47.460;19.034;2023-04-21T06:54:38;100404.38;;;13.68;44.70
41800;BME280;27468;47.460;19.034;2023-04-21T06:57:04;100418.97;;;13.81;43.64
41800;BME280;27468;47.460;19.034;2023-04-21T06:59:29;100410.72;;;13.89;43.70
41800;BME280;27468;47.460;19.034;2023-04-21T07:01:55;100408.84;;;13.93;44.13
41800;BME280;27468;47.460;19.034;2023-04-21T07:04:20;100412.88;;;14.04;43.33
41800;BME280;27468;47.460;19.034;2023-04-21T07:06:46;100397.13;;;14.00;42.67
41800;BME280;27468;47.460;19.034;2023-04-21T07:09:12;100363.25;;;13.83;43.23
41800;BME280;27468;47.460;19.034;2023-04-21T07:11:38;100406.50;;;14.10;43.63
41800;BME280;27468;47.460;19.034;2023-04-21T07:14:03;100413.44;;;14.14;43.18
41800;BME280;27468;47.460;19.034;2023-04-21T07:16:29;100411.56;;;14.17;43.38
41800;BME280;27468;47.460;19.034;2023-04-21T07:18:54;100414.09;;;14.20;43.22
41800;BME280;27468;47.460;19.034;2023-04-21T07:21:20;100394.63;;;14.21;43.31
41800;BME280;27468;47.460;19.034;2023-04-21T07:23:45;100325.28;;;13.82;43.30
41800;BME280;27468;47.460;19.034;2023-04-21T07:26:11;100384.00;;;14.21;43.33
41800;BME280;27468;47.460;19.034;2023-04-21T07:28:37;100392.31;;;14.37;43.26
41800;BME280;27468;47.460;19.034;2023-04-21T07:31:05;100399.84;;;14.49;43.41
41800;BME280;27468;47.460;19.034;2023-04-21T07:33:30;100404.13;;;14.53;43.63
41800;BME280;27468;47.460;19.034;2023-04-21T07:35:55;100389.06;;;14.54;43.28
41800;BME280;27468;47.460;19.034;2023-04-21T07:38:21;100411.59;;;14.67;42.67
41800;BME280;27468;47.460;19.034;2023-04-21T07:40:46;100351.53;;;14.41;42.12
41800;BME280;27468;47.460;19.034;2023-04-21T07:43:12;100382.50;;;14.64;42.72
41800;BME280;27468;47.460;19.034;2023-04-21T07:45:37;100385.81;;;14.71;42.41
41800;BME280;27468;47.460;19.034;2023-04-21T07:48:03;100405.50;;;14.89;42.58
41800;BME280;27468;47.460;19.034;2023-04-21T07:50:30;100402.56;;;14.96;41.98
41800;BME280;27468;47.460;19.034;2023-04-21T07:52:55;100386.88;;;14.90;41.30
41800;BME280;27468;47.460;19.034;2023-04-21T07:55:21;100383.28;;;14.91;41.66
41800;BME280;27468;47.460;19.034;2023-04-21T07:57:46;100376.94;;;14.95;41.37
41800;BME280;27468;47.460;19.034;2023-04-21T08:00:12;100395.78;;;15.11;40.77
41800;BME280;27468;47.460;19.034;2023-04-21T08:02:38;100364.34;;;15.00;40.94
41800;BME280;27468;47.460;19.034;2023-04-21T08:05:03;100345.25;;;14.91;41.29
41800;BME280;27468;47.460;19.034;2023-04-21T08:07:29;100403.84;;;15.31;41.21
41800;BME280;27468;47.460;19.034;2023-04-21T08:09:55;100392.19;;;15.35;39.74
41800;BME280;27468;47.460;19.034;2023-04-21T08:12:20;100364.25;;;15.25;40.09
41800;BME280;27468;47.460;19.034;2023-04-21T08:14:46;100367.28;;;15.38;40.02
41800;BME280;27468;47.460;19.034;2023-04-21T08:17:11;100398.41;;;15.58;37.54
41800;BME280;27468;47.460;19.034;2023-04-21T08:19:37;100399.88;;;15.65;38.10
41800;BME280;27468;47.460;19.034;2023-04-21T08:22:02;100392.41;;;15.74;38.67
41800;BME280;27468;47.460;19.034;2023-04-21T08:24:27;100388.88;;;15.74;38.06
41800;BME280;27468;47.460;19.034;2023-04-21T08:26:53;100395.22;;;15.92;38.44
41800;BME280;27468;47.460;19.034;2023-04-21T08:29:18;100370.88;;;15.80;38.14
41800;BME280;27468;47.460;19.034;2023-04-21T08:31:44;100372.44;;;15.86;38.08
41800;BME280;27468;47.460;19.034;2023-04-21T08:34:09;100349.44;;;15.85;37.32
41800;BME280;27468;47.460;19.034;2023-04-21T08:36:35;100392.53;;;16.13;37.48
41800;BME280;27468;47.460;19.034;2023-04-21T08:39:00;100386.94;;;16.19;37.59
41800;BME280;27468;47.460;19.034;2023-04-21T08:41:25;100346.13;;;16.00;36.17
41800;BME280;27468;47.460;19.034;2023-04-21T08:43:51;100387.47;;;16.28;36.96
41800;BME280;27468;47.460;19.034;2023-04-21T08:46:17;100389.00;;;16.33;36.56
41800;BME280;27468;47.460;19.034;2023-04-21T08:48:45;100368.31;;;16.19;35.90
41800;BME280;27468;47.460;19.034;2023-04-21T08:51:14;100355.09;;;16.18;35.70
41800;BME280;27468;47.460;19.034;2023-04-21T08:53:42;100323.66;;;16.07;35.70
41800;BME280;27468;47.460;19.034;2023-04-21T08:56:08;100375.31;;;16.42;36.10
41800;BME280;27468;47.460;19.034;2023-04-21T08:58:34;100375.84;;;16.50;35.88
41800;BME280;27468;47.460;19.034;2023-04-21T09:00:59;100369.59;;;16.51;35.87
41800;BME280;27468;47.460;19.034;2023-04-21T09:03:26;100362.47;;;16.52;35.96
41800;BME280;27468;47.460;19.034;2023-04-21T09:06:02;100384.16;;;16.63;35.52
41800;BME280;27468;47.460;19.034;2023-04-21T09:08:29;100365.66;;;16.60;35.40
41800;BME280;27468;47.460;19.034;2023-04-21T09:10:56;100369.59;;;16.72;35.97
41800;BME280;27468;47.460;19.034;2023-04-21T09:13:32;100376.47;;;16.76;34.98
41800;BME280;27468;47.460;19.034;2023-04-21T09:15:58;100339.72;;;16.65;35.06
41800;BME280;27468;47.460;19.034;2023-04-21T09:18:26;100367.88;;;16.90;35.70
41800;BME280;27468;47.460;19.034;2023-04-21T09:21:04;100359.66;;;16.94;35.29
41800;BME280;27468;47.460;19.034;2023-04-21T09:23:30;100348.53;;;17.05;35.69
41800;BME280;27468;47.460;19.034;2023-04-21T09:25:55;100351.53;;;17.16;34.95
41800;BME280;27468;47.460;19.034;2023-04-21T09:28:21;100353.78;;;17.25;34.87
41800;BME280;27468;47.460;19.034;2023-04-21T09:30:53;100346.78;;;17.23;34.53
41800;BME280;27468;47.460;19.034;2023-04-21T09:33:19;100295.09;;;17.08;34.82
41800;BME280;27468;47.460;19.034;2023-04-21T09:35:44;100339.31;;;17.48;34.44
41800;BME280;27468;47.460;19.034;2023-04-21T09:38:11;100288.19;;;17.23;33.76
41800;BME280;27468;47.460;19.034;2023-04-21T09:40:37;100336.66;;;17.67;34.05
41800;BME280;27468;47.460;19.034;2023-04-21T09:43:03;100341.34;;;17.96;34.08
41800;BME280;27468;47.460;19.034;2023-04-21T09:45:29;100318.28;;;18.12;33.93
41800;BME280;27468;47.460;19.034;2023-04-21T09:47:56;100314.91;;;18.26;33.64
41800;BME280;27468;47.460;19.034;2023-04-21T09:50:23;100334.63;;;18.57;33.58
41800;BME280;27468;47.460;19.034;2023-04-21T09:52:50;100335.03;;;18.66;32.86
41800;BME280;27468;47.460;19.034;2023-04-21T09:55:17;100314.69;;;18.64;32.85
41800;BME280;27468;47.460;19.034;2023-04-21T09:57:46;100286.03;;;18.50;32.38
41800;BME280;27468;47.460;19.034;2023-04-21T10:00:13;100321.47;;;18.87;32.77
41800;BME280;27468;47.460;19.034;2023-04-21T10:02:44;100332.09;;;19.04;33.04
41800;BME280;27468;47.460;19.034;2023-04-21T10:05:11;100290.09;;;18.90;32.27
41800;BME280;27468;47.460;19.034;2023-04-21T10:07:37;100324.47;;;19.28;31.76
41800;BME280;27468;47.460;19.034;2023-04-21T10:10:06;100277.78;;;19.03;32.43
41800;BME280;27468;47.460;19.034;2023-04-21T10:12:32;100313.63;;;19.31;32.36
41800;BME280;27468;47.460;19.034;2023-04-21T10:15:03;100322.41;;;19.33;31.94
41800;BME280;27468;47.460;19.034;2023-04-21T10:17:28;100306.88;;;19.39;32.42
41800;BME280;27468;47.460;19.034;2023-04-21T10:19:56;100315.25;;;19.49;32.29
41800;BME280;27468;47.460;19.034;2023-04-21T10:22:26;100295.75;;;19.47;31.69
41800;BME280;27468;47.460;19.034;2023-04-21T10:24:55;100240.94;;;19.24;31.47
41800;BME280;27468;47.460;19.034;2023-04-21T10:30:00;100314.09;;;19.69;30.81
41800;BME280;27468;47.460;19.034;2023-04-21T10:32:40;100298.88;;;19.85;31.39
41800;BME280;27468;47.460;19.034;2023-04-21T10:35:14;100250.75;;;19.55;30.92
41800;BME280;27468;47.460;19.034;2023-04-21T10:37:42;100277.13;;;19.61;30.98
41800;BME280;27468;47.460;19.034;2023-04-21T10:42:54;100290.63;;;19.74;31.34
41800;BME280;27468;47.460;19.034;2023-04-21T10:45:24;100297.06;;;19.86;31.47
41800;BME280;27468;47.460;19.034;2023-04-21T10:47:51;100241.97;;;19.22;30.93
41800;BME280;27468;47.460;19.034;2023-04-21T10:50:26;100253.25;;;19.42;31.49
41800;BME280;27468;47.460;19.034;2023-04-21T10:55:19;100280.00;;;19.72;30.84
41800;BME280;27468;47.460;19.034;2023-04-21T10:57:45;100261.53;;;19.22;30.92
41800;BME280;27468;47.460;19.034;2023-04-21T11:00:16;100272.63;;;19.46;30.92
41800;BME280;27468;47.460;19.034;2023-04-21T11:02:41;100275.59;;;19.71;31.07
41800;BME280;27468;47.460;19.034;2023-04-21T11:05:08;100281.13;;;19.98;31.06
41800;BME280;27468;47.460;19.034;2023-04-21T11:07:33;100219.56;;;19.84;30.49
41800;BME280;27468;47.460;19.034;2023-04-21T11:10:03;100278.28;;;20.01;30.53
41800;BME280;27468;47.460;19.034;2023-04-21T11:12:30;100260.28;;;19.89;30.11
41800;BME280;27468;47.460;19.034;2023-04-21T11:14:56;100215.81;;;19.42;30.69
41800;BME280;27468;47.460;19.034;2023-04-21T11:17:22;100276.09;;;19.64;31.11
41800;BME280;27468;47.460;19.034;2023-04-21T11:19:51;100263.66;;;19.63;31.10
41800;BME280;27468;47.460;19.034;2023-04-21T11:22:17;100266.22;;;19.64;30.93
41800;BME280;27468;47.460;19.034;2023-04-21T11:24:44;100270.41;;;19.84;30.63
41800;BME280;27468;47.460;19.034;2023-04-21T11:27:10;100211.41;;;19.57;30.75
41800;BME280;27468;47.460;19.034;2023-04-21T11:29:37;100216.22;;;19.51;30.54
41800;BME280;27468;47.460;19.034;2023-04-21T11:32:10;100252.66;;;19.67;30.58
41800;BME280;27468;47.460;19.034;2023-04-21T11:34:36;100216.75;;;19.57;30.64
41800;BME280;27468;47.460;19.034;2023-04-21T11:37:02;100205.38;;;19.68;30.67
41800;BME280;27468;47.460;19.034;2023-04-21T11:39:28;100246.03;;;19.89;30.84
41800;BME280;27468;47.460;19.034;2023-04-21T11:41:53;100214.50;;;19.79;30.95
41800;BME280;27468;47.460;19.034;2023-04-21T11:44:41;100260.47;;;19.86;31.09
41800;BME280;27468;47.460;19.034;2023-04-21T11:47:21;100254.94;;;19.89;31.19
41800;BME280;27468;47.460;19.034;2023-04-21T11:49:57;100255.63;;;20.07;30.87
41800;BME280;27468;47.460;19.034;2023-04-21T11:54:58;100254.13;;;19.73;30.80
41800;BME280;27468;47.460;19.034;2023-04-21T11:57:25;100207.97;;;19.55;30.76
41800;BME280;27468;47.460;19.034;2023-04-21T11:59:51;100236.94;;;19.63;30.84
41800;BME280;27468;47.460;19.034;2023-04-21T12:02:25;100257.50;;;19.91;30.57
41800;BME280;27468;47.460;19.034;2023-04-21T12:07:22;100204.28;;;19.86;30.68
41800;BME280;27468;47.460;19.034;2023-04-21T12:09:51;100243.78;;;20.11;30.08
41800;BME280;27468;47.460;19.034;2023-04-21T12:12:16;100236.78;;;20.37;29.99
41800;BME280;27468;47.460;19.034;2023-04-21T12:14:43;100235.97;;;20.65;29.17
41800;BME280;27468;47.460;19.034;2023-04-21T12:17:09;100224.09;;;20.55;29.69
41800;BME280;27468;47.460;19.034;2023-04-21T12:19:39;100236.53;;;20.70;29.81
41800;BME280;27468;47.460;19.034;2023-04-21T12:22:09;100181.72;;;20.33;29.72
41800;BME280;27468;47.460;19.034;2023-04-21T12:24:36;100235.19;;;20.63;29.65
41800;BME280;27468;47.460;19.034;2023-04-21T12:27:01;100210.34;;;20.47;29.52
41800;BME280;27468;47.460;19.034;2023-04-21T12:29:27;100187.69;;;20.38;29.41
41800;BME280;27468;47.460;19.034;2023-04-21T12:31:53;100180.22;;;20.43;29.11
41800;BME280;27468;47.460;19.034;2023-04-21T12:34:18;100212.72;;;20.51;29.53
41800;BME280;27468;47.460;19.034;2023-04-21T12:36:44;100214.84;;;20.46;29.97
41800;BME280;27468;47.460;19.034;2023-04-21T12:39:09;100208.44;;;20.49;29.81
41800;BME280;27468;47.460;19.034;2023-04-21T12:41:35;100224.78;;;20.44;29.98
41800;BME280;27468;47.460;19.034;2023-04-21T12:44:00;100202.22;;;20.48;29.94
41800;BME280;27468;47.460;19.034;2023-04-21T12:46:26;100183.38;;;20.50;29.33
41800;BME280;27468;47.460;19.034;2023-04-21T12:48:52;100225.72;;;20.71;29.73